sensor_id;sensor_type;location;lat;lon;timestamp;pressure;altitude;pressure_sealevel;temperature;humidity
32492;BME280;20605;49.742;18.802;2023-03-03T00:01:10;97998.37;;;-1.43;100.00
32492;BME280;20605;49.742;18.802;2023-03-03T00:03:36;97998.55;;;-1.43;100.00
32492;BME280;20605;49.742;18.802;2023-03-03T00:06:03;97998.89;;;-1.43;100.00
32492;BME280;20605;49.742;18.802;2023-03-03T00:08:29;97996.46;;;-1.45;100.00
32492;BME280;20605;49.742;18.802;2023-03-03T00:10:57;97996.35;;;-1.51;100.00
32492;BME280;20605;49.742;18.802;2023-03-03T00:13:27;97995.39;;;-1.57;100.00
32492;BME280;20605;49.742;18.802;2023-03-03T00:15:56;97992.95;;;-1.59;100.00
32492;BME280;20605;49.742;18.802;2023-03-03T00:18:35;97996.98;;;-1.61;100.00
32492;BME280;20605;49.742;18.802;2023-03-03T00:21:03;97993.54;;;-1.64;100.00
32492;BME280;20605;49.742;18.802;2023-03-03T00:23:38;97992.85;;;-1.64;100.00
32492;BME280;20605;49.742;18.802;2023-03-03T00:26:20;97997.45;;;-1.65;100.00
32492;BME280;20605;49.742;18.802;2023-03-03T00:28:51;97996.19;;;-1.68;100.00
32492;BME280;20605;49.742;18.802;2023-03-03T00:31:33;97995.74;;;-1.74;100.00
32492;BME280;20605;49.742;18.802;2023-03-03T00:34:23;97994.15;;;-1.76;100.00
32492;BME280;20605;49.742;18.802;2023-03-03T00:36:52;97995.84;;;-1.77;100.00
32492;BME280;20605;49.742;18.802;2023-03-03T00:39:27;97997.64;;;-1.81;100.00
32492;BME280;20605;49.742;18.802;2023-03-03T00:41:53;98000.65;;;-1.83;100.00
32492;BME280;20605;49.742;18.802;2023-03-03T00:44:45;98002.81;;;-1.86;100.00
32492;BME280;20605;49.742;18.802;2023-03-03T00:52:39;98002.69;;;-1.91;100.00
32492;BME280;20605;49.742;18.802;2023-03-03T00:55:06;98002.37;;;-1.90;100.00
32492;BME280;20605;49.742;18.802;2023-03-03T00:57:32;98001.42;;;-1.87;100.00
32492;BME280;20605;49.742;18.802;2023-03-03T00:59:58;97998.23;;;-1.85;100.00
32492;BME280;20605;49.742;18.802;2023-03-03T01:02:24;97994.02;;;-1.83;100.00
32492;BME280;20605;49.742;18.802;2023-03-03T01:04:51;97992.04;;;-1.80;100.00
32492;BME280;20605;49.742;18.802;2023-03-03T01:07:18;97990.18;;;-1.79;100.00
32492;BME280;20605;49.742;18.802;2023-03-03T01:09:44;97992.02;;;-1.81;100.00
32492;BME280;20605;49.742;18.802;2023-03-03T01:12:10;97988.45;;;-1.81;100.00
32492;BME280;20605;49.742;18.802;2023-03-03T01:14:37;97987.30;;;-1.79;100.00
32492;BME280;20605;49.742;18.802;2023-03-03T01:17:04;97986.11;;;-1.78;100.00
32492;BME280;20605;49.742;18.802;2023-03-03T01:19:30;97983.37;;;-1.79;100.00
32492;BME280;20605;49.742;18.802;2023-03-03T01:21:57;97979.61;;;-1.80;100.00
32492;BME280;20605;49.742;18.802;2023-03-03T01:24:23;97977.11;;;-1.78;100.00
32492;BME280;20605;49.742;18.802;2023-03-03T01:26:49;97974.07;;;-1.76;100.00
32492;BME280;20605;49.742;18.802;2023-03-03T01:29:14;97970.53;;;-1.74;100.00
32492;BME280;20605;49.742;18.802;2023-03-03T01:31:41;97976.70;;;-1.73;100.00
32492;BME280;20605;49.742;18.802;2023-03-03T01:34:07;97969.21;;;-1.72;100.00
32492;BME280;20605;49.742;18.802;2023-03-03T01:36:33;97967.67;;;-1.73;100.00
32492;BME280;20605;49.742;18.802;2023-03-03T01:38:59;97963.11;;;-1.71;100.00
32492;BME280;20605;49.742;18.802;2023-03-03T01:41:27;97963.67;;;-1.68;100.00
32492;BME280;20605;49.742;18.802;2023-03-03T01:43:54;97962.17;;;-1.67;100.00
32492;BME280;20605;49.742;18.802;2023-03-03T01:46:28;97958.95;;;-1.66;100.00
32492;BME280;20605;49.742;18.802;2023-03-03T01:49:26;97956.04;;;-1.67;100.00
32492;BME280;20605;49.742;18.802;2023-03-03T01:51:57;97950.66;;;-1.72;100.00
32492;BME280;20605;49.742;18.802;2023-03-03T01:54:32;97948.04;;;-1.76;100.00
32492;BME280;20605;49.742;18.802;2023-03-03T01:57:04;97948.35;;;-1.77;100.00
32492;BME280;20605;49.742;18.802;2023-03-03T01:59:34;97948.45;;;-1.81;100.00
32492;BME280;20605;49.742;18.802;2023-03-03T02:02:03;97943.19;;;-1.89;100.00
32492;BME280;20605;49.742;18.802;2023-03-03T02:04:29;97944.41;;;-1.96;100.00
32492;BME280;20605;49.742;18.802;2023-03-03T02:07:00;97946.19;;;-2.00;100.00
32492;BME280;20605;49.742;18.802;2023-03-03T02:10:20;97944.29;;;-2.02;100.00
32492;BME280;20605;49.742;18.802;2023-03-03T02:12:51;97945.42;;;-2.05;100.00
32492;BME280;20605;49.742;18.802;2023-03-03T02:17:46;97951.10;;;-2.10;100.00
32492;BME280;20605;49.742;18.802;2023-03-03T02:20:46;97953.61;;;-2.12;100.00
32492;BME280;20605;49.742;18.802;2023-03-03T02:26:08;97949.12;;;-2.15;100.00
32492;BME280;20605;49.742;18.802;2023-03-03T02:28:36;97944.65;;;-2.18;100.00
32492;BME280;20605;49.742;18.802;2023-03-03T02:31:06;97947.13;;;-2.21;100.00
32492;BME280;20605;49.742;18.802;2023-03-03T02:33:32;97949.27;;;-2.25;100.00
32492;BME280;20605;49.742;18.802;2023-03-03T02:35:58;97951.75;;;-2.28;100.00
32492;BME280;20605;49.742;18.802;2023-03-03T02:38:35;97949.10;;;-2.33;100.00
32492;BME280;20605;49.742;18.802;2023-03-03T02:46:20;97941.42;;;-2.42;100.00
32492;BME280;20605;49.742;18.802;2023-03-03T02:48:47;97942.33;;;-2.39;100.00
32492;BME280;20605;49.742;18.802;2023-03-03T02:51:13;97940.88;;;-2.36;100.00
32492;BME280;20605;49.742;18.802;2023-03-03T02:53:39;97942.78;;;-2.34;100.00
32492;BME280;20605;49.742;18.802;2023-03-03T02:56:06;97938.24;;;-2.31;100.00
32492;BME280;20605;49.742;18.802;2023-03-03T02:58:35;97933.70;;;-2.29;100.00
32492;BME280;20605;49.742;18.802;2023-03-03T03:01:01;97934.40;;;-2.28;100.00
32492;BME280;20605;49.742;18.802;2023-03-03T03:03:27;97934.22;;;-2.29;100.00
32492;BME280;20605;49.742;18.802;2023-03-03T03:05:54;97941.20;;;-2.28;100.00
32492;BME280;20605;49.742;18.802;2023-03-03T03:08:20;97947.55;;;-2.26;100.00
32492;BME280;20605;49.742;18.802;2023-03-03T03:10:46;97947.60;;;-2.23;100.00
32492;BME280;20605;49.742;18.802;2023-03-03T03:13:12;97949.59;;;-2.17;100.00
32492;BME280;20605;49.742;18.802;2023-03-03T03:15:39;97948.02;;;-2.11;100.00
32492;BME280;20605;49.742;18.802;2023-03-03T03:18:05;97951.00;;;-2.07;100.00
32492;BME280;20605;49.742;18.802;2023-03-03T03:20:38;97953.78;;;-2.04;100.00
32492;BME280;20605;49.742;18.802;2023-03-03T03:23:08;97954.66;;;-2.03;100.00
32492;BME280;20605;49.742;18.802;2023-03-03T03:25:34;97947.90;;;-2.09;100.00
32492;BME280;20605;49.742;18.802;2023-03-03T03:28:07;97939.19;;;-2.19;100.00
32492;BME280;20605;49.742;18.802;2023-03-03T03:30:34;97939.39;;;-2.25;100.00
32492;BME280;20605;49.742;18.802;2023-03-03T03:33:01;97947.05;;;-2.33;100.00
32492;BME280;20605;49.742;18.802;2023-03-03T03:35:27;97952.20;;;-2.38;100.00
32492;BME280;20605;49.742;18.802;2023-03-03T03:37:53;97955.70;;;-2.42;100.00
32492;BME280;20605;49.742;18.802;2023-03-03T03:40:20;97963.17;;;-2.43;100.00
32492;BME280;20605;49.742;18.802;2023-03-03T03:42:46;97962.73;;;-2.40;100.00
32492;BME280;20605;49.742;18.802;2023-03-03T03:45:12;97964.52;;;-2.35;100.00
32492;BME280;20605;49.742;18.802;2023-03-03T03:47:42;97961.31;;;-2.35;100.00
32492;BME280;20605;49.742;18.802;2023-03-03T03:50:08;97960.86;;;-2.40;100.00
32492;BME280;20605;49.742;18.802;2023-03-03T03:52:35;97958.30;;;-2.47;100.00
32492;BME280;20605;49.742;18.802;2023-03-03T03:55:04;97959.05;;;-2.52;100.00
32492;BME280;20605;49.742;18.802;2023-03-03T03:57:31;97956.11;;;-2.54;100.00
32492;BME280;20605;49.742;18.802;2023-03-03T03:59:56;97958.15;;;-2.54;100.00
32492;BME280;20605;49.742;18.802;2023-03-03T04:02:22;97956.32;;;-2.52;100.00
32492;BME280;20605;49.742;18.802;2023-03-03T04:04:48;97955.09;;;-2.47;100.00
32492;BME280;20605;49.742;18.802;2023-03-03T04:07:14;97951.80;;;-2.42;100.00
32492;BME280;20605;49.742;18.802;2023-03-03T04:09:40;97951.54;;;-2.38;100.00
32492;BME280;20605;49.742;18.802;2023-03-03T04:12:07;97947.66;;;-2.36;100.00
32492;BME280;20605;49.742;18.802;2023-03-03T04:14:33;97950.04;;;-2.37;100.00
32492;BME280;20605;49.742;18.802;2023-03-03T04:17:00;97953.76;;;-2.38;100.00
32492;BME280;20605;49.742;18.802;2023-03-03T04:19:26;97955.52;;;-2.42;100.00
32492;BME280;20605;49.742;18.802;2023-03-03T04:21:52;97947.20;;;-2.49;100.00
32492;BME280;20605;49.742;18.802;2023-03-03T04:24:18;97950.89;;;-2.52;100.00
32492;BME280;20605;49.742;18.802;2023-03-03T04:26:44;97951.58;;;-2.52;100.00
32492;BME280;20605;49.742;18.802;2023-03-03T04:29:10;97951.20;;;-2.53;100.00
32492;BME280;20605;49.742;18.802;2023-03-03T04:31:37;97949.44;;;-2.56;100.00
32492;BME280;20605;49.742;18.802;2023-03-03T04:34:04;97952.67;;;-2.56;100.00
32492;BME280;20605;49.742;18.802;2023-03-03T04:36:30;97949.25;;;-2.56;100.00
32492;BME280;20605;49.742;18.802;2023-03-03T04:38:56;97948.29;;;-2.54;100.00
32492;BME280;20605;49.742;18.802;2023-03-03T04:41:22;97940.86;;;-2.60;100.00
32492;BME280;20605;49.742;18.802;2023-03-03T04:43:48;97938.14;;;-2.69;100.00
32492;BME280;20605;49.742;18.802;2023-03-03T04:46:14;97933.60;;;-2.75;100.00
32492;BME280;20605;49.742;18.802;2023-03-03T04:48:40;97938.05;;;-2.80;100.00
32492;BME280;20605;49.742;18.802;2023-03-03T04:51:06;97941.59;;;-2.81;100.00
32492;BME280;20605;49.742;18.802;2023-03-03T04:53:32;97943.14;;;-2.81;100.00
32492;BME280;20605;49.742;18.802;2023-03-03T04:55:58;97944.70;;;-2.79;100.00
32492;BME280;20605;49.742;18.802;2023-03-03T04:58:24;97951.23;;;-2.76;100.00
32492;BME280;20605;49.742;18.802;2023-03-03T05:00:55;97954.67;;;-2.75;100.00
32492;BME280;20605;49.742;18.802;2023-03-03T05:03:22;97957.00;;;-2.76;100.00
32492;BME280;20605;49.742;18.802;2023-03-03T05:05:49;97964.84;;;-2.76;100.00
32492;BME280;20605;49.742;18.802;2023-03-03T05:08:15;97973.00;;;-2.75;100.00
32492;BME280;20605;49.742;18.802;2023-03-03T05:10:41;97973.59;;;-2.79;100.00
32492;BME280;20605;49.742;18.802;2023-03-03T05:13:07;97970.27;;;-2.90;100.00
32492;BME280;20605;49.742;18.802;2023-03-03T05:15:34;97969.29;;;-2.96;100.00
32492;BME280;20605;49.742;18.802;2023-03-03T05:18:00;97970.55;;;-3.00;100.00
32492;BME280;20605;49.742;18.802;2023-03-03T05:20:26;97970.35;;;-3.02;100.00
32492;BME280;20605;49.742;18.802;2023-03-03T05:22:52;97969.14;;;-3.02;100.00
32492;BME280;20605;49.742;18.802;2023-03-03T05:25:20;97967.13;;;-3.01;100.00
32492;BME280;20605;49.742;18.802;2023-03-03T05:27:46;97967.20;;;-2.98;100.00
32492;BME280;20605;49.742;18.802;2023-03-03T05:30:12;97972.67;;;-2.97;100.00
32492;BME280;20605;49.742;18.802;2023-03-03T05:32:38;97977.09;;;-2.97;100.00
32492;BME280;20605;49.742;18.802;2023-03-03T05:35:04;97978.48;;;-2.95;100.00
32492;BME280;20605;49.742;18.802;2023-03-03T05:37:31;97980.62;;;-2.98;100.00
32492;BME280;20605;49.742;18.802;2023-03-03T05:39:57;97985.65;;;-3.01;100.00
32492;BME280;20605;49.742;18.802;2023-03-03T05:42:23;97984.55;;;-3.04;100.00
32492;BME280;20605;49.742;18.802;2023-03-03T05:44:48;97981.60;;;-3.07;100.00
32492;BME280;20605;49.742;18.802;2023-03-03T05:47:14;97988.82;;;-3.10;100.00
32492;BME280;20605;49.742;18.802;2023-03-03T05:49:40;97990.91;;;-3.14;100.00
32492;BME280;20605;49.742;18.802;2023-03-03T05:52:06;97992.64;;;-3.13;100.00
32492;BME280;20605;49.742;18.802;2023-03-03T05:54:33;97996.29;;;-3.04;100.00
32492;BME280;20605;49.742;18.802;2023-03-03T05:57:00;97994.94;;;-2.96;100.00
32492;BME280;20605;49.742;18.802;2023-03-03T05:59:25;98000.42;;;-2.87;100.00
32492;BME280;20605;49.742;18.802;2023-03-03T06:01:51;98004.53;;;-2.86;100.00
32492;BME280;20605;49.742;18.802;2023-03-03T06:04:17;98009.55;;;-2.82;100.00
32492;BME280;20605;49.742;18.802;2023-03-03T06:06:43;98004.86;;;-2.72;100.00
32492;BME280;20605;49.742;18.802;2023-03-03T06:09:09;98003.78;;;-2.59;100.00
32492;BME280;20605;49.742;18.802;2023-03-03T06:11:35;98007.90;;;-2.50;100.00
32492;BME280;20605;49.742;18.802;2023-03-03T06:14:02;98009.80;;;-2.41;100.00
32492;BME280;20605;49.742;18.802;2023-03-03T06:16:27;98013.08;;;-2.31;100.00
32492;BME280;20605;49.742;18.802;2023-03-03T06:18:53;98016.25;;;-2.10;100.00
32492;BME280;20605;49.742;18.802;2023-03-03T06:21:19;98011.46;;;-1.43;100.00
32492;BME280;20605;49.742;18.802;2023-03-03T06:23:45;98016.23;;;-0.63;100.00
32492;BME280;20605;49.742;18.802;2023-03-03T06:26:10;98016.05;;;0.08;100.00
32492;BME280;20605;49.742;18.802;2023-03-03T06:28:36;98019.75;;;0.76;100.00
32492;BME280;20605;49.742;18.802;2023-03-03T06:31:02;98029.34;;;1.34;100.00
32492;BME280;20605;49.742;18.802;2023-03-03T06:33:28;98035.86;;;1.85;100.00
32492;BME280;20605;49.742;18.802;2023-03-03T06:35:54;98038.64;;;2.66;100.00
32492;BME280;20605;49.742;18.802;2023-03-03T06:38:20;98044.95;;;3.48;100.00
32492;BME280;20605;49.742;18.802;2023-03-03T06:40:46;98046.80;;;4.00;100.00
32492;BME280;20605;49.742;18.802;2023-03-03T06:43:12;98052.52;;;4.39;100.00
32492;BME280;20605;49.742;18.802;2023-03-03T06:45:38;98060.30;;;4.76;100.00
32492;BME280;20605;49.742;18.802;2023-03-03T06:48:05;98068.52;;;5.15;100.00
32492;BME280;20605;49.742;18.802;2023-03-03T06:50:30;98070.83;;;5.52;100.00
32492;BME280;20605;49.742;18.802;2023-03-03T06:53:09;98075.48;;;5.74;100.00
32492;BME280;20605;49.742;18.802;2023-03-03T06:55:36;98078.23;;;5.75;100.00
32492;BME280;20605;49.742;18.802;2023-03-03T06:58:13;98080.28;;;5.30;100.00
32492;BME280;20605;49.742;18.802;2023-03-03T07:00:41;98088.51;;;4.76;100.00
32492;BME280;20605;49.742;18.802;2023-03-03T07:03:14;98095.55;;;4.22;100.00
32492;BME280;20605;49.742;18.802;2023-03-03T07:05:41;98092.86;;;3.83;100.00
32492;BME280;20605;49.742;18.802;2023-03-03T07:08:16;98092.35;;;3.52;100.00
32492;BME280;20605;49.742;18.802;2023-03-03T07:10:43;98094.17;;;3.16;100.00
32492;BME280;20605;49.742;18.802;2023-03-03T07:13:24;98098.20;;;2.85;100.00
32492;BME280;20605;49.742;18.802;2023-03-03T07:15:52;98099.83;;;2.61;100.00
32492;BME280;20605;49.742;18.802;2023-03-03T07:18:43;98102.50;;;2.43;100.00
32492;BME280;20605;49.742;18.802;2023-03-03T07:21:16;98106.21;;;2.05;100.00
32492;BME280;20605;49.742;18.802;2023-03-03T07:23:44;98097.73;;;1.71;100.00
32492;BME280;20605;49.742;18.802;2023-03-03T07:26:16;98095.53;;;1.52;100.00
32492;BME280;20605;49.742;18.802;2023-03-03T07:28:44;98094.91;;;1.40;100.00
32492;BME280;20605;49.742;18.802;2023-03-03T07:31:38;98091.50;;;1.21;100.00
32492;BME280;20605;49.742;18.802;2023-03-03T07:34:17;98097.33;;;1.05;100.00
32492;BME280;20605;49.742;18.802;2023-03-03T07:36:45;98096.44;;;1.03;100.00
32492;BME280;20605;49.742;18.802;2023-03-03T07:39:38;98099.48;;;0.98;100.00
32492;BME280;20605;49.742;18.802;2023-03-03T07:44:36;98097.77;;;0.99;100.00
32492;BME280;20605;49.742;18.802;2023-03-03T07:49:45;98088.74;;;1.02;100.00
32492;BME280;20605;49.742;18.802;2023-03-03T07:52:24;98085.77;;;0.96;100.00
32492;BME280;20605;49.742;18.802;2023-03-03T07:54:52;98073.20;;;0.87;100.00
32492;BME280;20605;49.742;18.802;2023-03-03T07:57:27;98059.44;;;0.79;100.00
32492;BME280;20605;49.742;18.802;2023-03-03T08:02:57;98035.83;;;0.76;100.00
32492;BME280;20605;49.742;18.802;2023-03-03T08:05:39;98036.59;;;0.84;100.00
32492;BME280;20605;49.742;18.802;2023-03-03T08:10:38;98028.44;;;1.07;100.00
32492;BME280;20605;49.742;18.802;2023-03-03T08:13:18;98028.83;;;1.36;100.00
32492;BME280;20605;49.742;18.802;2023-03-03T08:15:50;98035.59;;;1.70;100.00
32492;BME280;20605;49.742;18.802;2023-03-03T08:18:28;98031.58;;;1.84;100.00
32492;BME280;20605;49.742;18.802;2023-03-03T08:20:57;98031.84;;;2.00;100.00
32492;BME280;20605;49.742;18.802;2023-03-03T08:23:24;98034.98;;;2.09;100.00
32492;BME280;20605;49.742;18.802;2023-03-03T08:25:50;98028.81;;;2.07;100.00
32492;BME280;20605;49.742;18.802;2023-03-03T08:28:18;98028.46;;;2.07;100.00
32492;BME280;20605;49.742;18.802;2023-03-03T08:30:45;98031.73;;;2.06;100.00
32492;BME280;20605;49.742;18.802;2023-03-03T08:33:11;98034.27;;;2.05;100.00
32492;BME280;20605;49.742;18.802;2023-03-03T08:35:37;98037.18;;;2.04;100.00
32492;BME280;20605;49.742;18.802;2023-03-03T08:38:04;98040.42;;;2.01;100.00
32492;BME280;20605;49.742;18.802;2023-03-03T08:40:31;98046.41;;;1.99;100.00
32492;BME280;20605;49.742;18.802;2023-03-03T08:42:57;98054.42;;;1.94;100.00
32492;BME280;20605;49.742;18.802;2023-03-03T08:45:24;98054.59;;;1.93;100.00
32492;BME280;20605;49.742;18.802;2023-03-03T08:47:50;98063.08;;;1.82;100.00
32492;BME280;20605;49.742;18.802;2023-03-03T08:50:16;98066.88;;;1.64;100.00
32492;BME280;20605;49.742;18.802;2023-03-03T08:52:45;98068.54;;;1.38;100.00
32492;BME280;20605;49.742;18.802;2023-03-03T08:55:11;98069.54;;;1.14;100.00
32492;BME280;20605;49.742;18.802;2023-03-03T08:57:38;98075.20;;;0.98;100.00
32492;BME280;20605;49.742;18.802;2023-03-03T09:00:09;98068.14;;;0.93;100.00
32492;BME280;20605;49.742;18.802;2023-03-03T09:02:36;98062.33;;;0.94;100.00
32492;BME280;20605;49.742;18.802;2023-03-03T09:05:02;98064.83;;;1.03;100.00
32492;BME280;20605;49.742;18.802;2023-03-03T09:07:28;98072.42;;;1.11;100.00
32492;BME280;20605;49.742;18.802;2023-03-03T09:09:54;98080.09;;;1.09;100.00
32492;BME280;20605;49.742;18.802;2023-03-03T09:12:32;98085.66;;;1.00;100.00
32492;BME280;20605;49.742;18.802;2023-03-03T09:15:23;98086.77;;;0.93;100.00
32492;BME280;20605;49.742;18.802;2023-03-03T09:17:50;98085.45;;;0.82;100.00
32492;BME280;20605;49.742;18.802;2023-03-03T09:20:36;98093.48;;;0.81;100.00
32492;BME280;20605;49.742;18.802;2023-03-03T09:23:41;98091.05;;;0.78;100.00
32492;BME280;20605;49.742;18.802;2023-03-03T09:28:36;98112.25;;;0.65;100.00
32492;BME280;20605;49.742;18.802;2023-03-03T09:31:03;98119.40;;;0.50;100.00
32492;BME280;20605;49.742;18.802;2023-03-03T09:33:42;98115.98;;;0.37;100.00
32492;BME280;20605;49.742;18.802;2023-03-03T09:36:29;98105.97;;;0.29;100.00
32492;BME280;20605;49.742;18.802;2023-03-03T09:39:25;98096.96;;;0.32;100.00
32492;BME280;20605;49.742;18.802;2023-03-03T09:42:24;98100.73;;;0.46;100.00
32492;BME280;20605;49.742;18.802;2023-03-03T09:50:42;98102.77;;;0.46;100.00
32492;BME280;20605;49.742;18.802;2023-03-03T09:58:55;98105.52;;;0.46;100.00
32492;BME280;20605;49.742;18.802;2023-03-03T10:09:34;98101.69;;;0.40;100.00
32492;BME280;20605;49.742;18.802;2023-03-03T10:15:20;98108.35;;;0.41;100.00
32492;BME280;20605;49.742;18.802;2023-03-03T10:21:09;98099.79;;;0.39;100.00
32492;BME280;20605;49.742;18.802;2023-03-03T10:31:44;98102.70;;;0.53;100.00
32492;BME280;20605;49.742;18.802;2023-03-03T10:35:02;98112.66;;;0.56;100.00
32492;BME280;20605;49.742;18.802;2023-03-03T10:37:48;98111.90;;;0.64;100.00
32492;BME280;20605;49.742;18.802;2023-03-03T10:40:34;98113.96;;;0.66;100.00
32492;BME280;20605;49.742;18.802;2023-03-03T10:57:02;98114.56;;;0.73;100.00
32492;BME280;20605;49.742;18.802;2023-03-03T11:06:01;98123.07;;;0.83;100.00
32492;BME280;20605;49.742;18.802;2023-03-03T11:08:29;98129.70;;;0.80;100.00
32492;BME280;20605;49.742;18.802;2023-03-03T11:19:11;98135.98;;;0.63;100.00
32492;BME280;20605;49.742;18.802;2023-03-03T11:27:31;98128.46;;;0.63;100.00
32492;BME280;20605;49.742;18.802;2023-03-03T11:30:34;98123.25;;;0.70;100.00
32492;BME280;20605;49.742;18.802;2023-03-03T11:33:21;98122.95;;;0.74;100.00
32492;BME280;20605;49.742;18.802;2023-03-03T11:36:08;98123.47;;;0.74;100.00
32492;BME280;20605;49.742;18.802;2023-03-03T11:38:47;98122.55;;;0.69;100.00
32492;BME280;20605;49.742;18.802;2023-03-03T11:41:41;98125.65;;;0.71;100.00
32492;BME280;20605;49.742;18.802;2023-03-03T11:47:08;98121.48;;;0.65;100.00
32492;BME280;20605;49.742;18.802;2023-03-03T11:49:52;98122.66;;;0.64;100.00
32492;BME280;20605;49.742;18.802;2023-03-03T11:55:16;98127.30;;;0.67;100.00
32492;BME280;20605;49.742;18.802;2023-03-03T11:58:03;98130.17;;;0.64;100.00
32492;BME280;20605;49.742;18.802;2023-03-03T12:08:56;98126.15;;;0.56;100.00
32492;BME280;20605;49.742;18.802;2023-03-03T12:11:46;98127.65;;;0.53;100.00
32492;BME280;20605;49.742;18.802;2023-03-03T12:17:23;98127.62;;;0.39;100.00
32492;BME280;20605;49.742;18.802;2023-03-03T12:25:32;98116.06;;;0.55;100.00
32492;BME280;20605;49.742;18.802;2023-03-03T12:35:56;98115.24;;;0.58;100.00
32492;BME280;20605;49.742;18.802;2023-03-03T12:38:39;98116.18;;;0.65;100.00
32492;BME280;20605;49.742;18.802;2023-03-03T12:41:33;98119.63;;;0.68;100.00
32492;BME280;20605;49.742;18.802;2023-03-03T12:46:59;98121.10;;;0.76;100.00
32492;BME280;20605;49.742;18.802;2023-03-03T12:49:38;98119.92;;;0.78;100.00
32492;BME280;20605;49.742;18.802;2023-03-03T13:03:24;98104.98;;;0.85;100.00
32492;BME280;20605;49.742;18.802;2023-03-03T13:06:22;98098.56;;;0.93;100.00
32492;BME280;20605;49.742;18.802;2023-03-03T13:11:35;98094.09;;;1.06;100.00
32492;BME280;20605;49.742;18.802;2023-03-03T13:14:31;98091.13;;;1.17;100.00
32492;BME280;20605;49.742;18.802;2023-03-03T13:19:58;98094.31;;;1.31;100.00
32492;BME280;20605;49.742;18.802;2023-03-03T13:31:03;98086.41;;;1.25;100.00
32492;BME280;20605;49.742;18.802;2023-03-03T13:33:36;98083.38;;;1.31;100.00
32492;BME280;20605;49.742;18.802;2023-03-03T13:36:10;98086.83;;;1.37;100.00
32492;BME280;20605;49.742;18.802;2023-03-03T13:38:46;98085.95;;;1.34;100.00
32492;BME280;20605;49.742;18.802;2023-03-03T13:41:48;98085.25;;;1.30;100.00
32492;BME280;20605;49.742;18.802;2023-03-03T13:44:42;98086.06;;;1.23;100.00
32492;BME280;20605;49.742;18.802;2023-03-03T13:47:37;98084.63;;;1.17;100.00
32492;BME280;20605;49.742;18.802;2023-03-03T13:50:45;98082.74;;;1.17;100.00
32492;BME280;20605;49.742;18.802;2023-03-03T14:06:27;98064.04;;;1.32;100.00
32492;BME280;20605;49.742;18.802;2023-03-03T14:09:17;98066.77;;;1.32;100.00
32492;BME280;20605;49.742;18.802;2023-03-03T14:14:30;98072.71;;;1.22;100.00
32492;BME280;20605;49.742;18.802;2023-03-03T14:17:03;98070.32;;;1.23;100.00
32492;BME280;20605;49.742;18.802;2023-03-03T14:19:43;98065.39;;;1.26;100.00
32492;BME280;20605;49.742;18.802;2023-03-03T14:25:00;98059.94;;;1.11;100.00
32492;BME280;20605;49.742;18.802;2023-03-03T14:27:38;98058.02;;;0.90;100.00
32492;BME280;20605;49.742;18.802;2023-03-03T14:33:17;98054.64;;;0.78;100.00
32492;BME280;20605;49.742;18.802;2023-03-03T14:41:19;98059.68;;;0.85;100.00
32492;BME280;20605;49.742;18.802;2023-03-03T14:48:59;98057.02;;;0.93;100.00
32492;BME280;20605;49.742;18.802;2023-03-03T14:54:25;98058.00;;;0.88;100.00
32492;BME280;20605;49.742;18.802;2023-03-03T14:56:58;98056.79;;;0.72;100.00
32492;BME280;20605;49.742;18.802;2023-03-03T14:59:26;98056.20;;;0.64;100.00
32492;BME280;20605;49.742;18.802;2023-03-03T15:04:46;98060.20;;;0.56;100.00
32492;BME280;20605;49.742;18.802;2023-03-03T15:09:53;98058.83;;;0.56;100.00
32492;BME280;20605;49.742;18.802;2023-03-03T15:12:20;98056.27;;;0.57;100.00
32492;BME280;20605;49.742;18.802;2023-03-03T15:14:48;98059.16;;;0.54;100.00
32492;BME280;20605;49.742;18.802;2023-03-03T15:17:24;98060.67;;;0.53;100.00
32492;BME280;20605;49.742;18.802;2023-03-03T15:22:49;98062.33;;;0.62;100.00
32492;BME280;20605;49.742;18.802;2023-03-03T15:25:32;98063.57;;;0.67;100.00
32492;BME280;20605;49.742;18.802;2023-03-03T15:31:09;98060.05;;;0.58;100.00
32492;BME280;20605;49.742;18.802;2023-03-03T15:39:38;98061.38;;;0.55;100.00
32492;BME280;20605;49.742;18.802;2023-03-03T15:41:51;98064.52;;;0.46;100.00
32492;BME280;20605;49.742;18.802;2023-03-03T15:46:59;98067.49;;;0.39;100.00
32492;BME280;20605;49.742;18.802;2023-03-03T16:04:03;98066.59;;;0.21;100.00
32492;BME280;20605;49.742;18.802;2023-03-03T16:09:43;98068.88;;;0.13;100.00
32492;BME280;20605;49.742;18.802;2023-03-03T16:12:21;98066.30;;;0.13;100.00
32492;BME280;20605;49.742;18.802;2023-03-03T16:15:18;98068.48;;;0.09;100.00
32492;BME280;20605;49.742;18.802;2023-03-03T16:18:10;98065.70;;;0.07;100.00
32492;BME280;20605;49.742;18.802;2023-03-03T16:23:52;98070.27;;;0.15;100.00
32492;BME280;20605;49.742;18.802;2023-03-03T16:29:41;98075.98;;;0.20;100.00
32492;BME280;20605;49.742;18.802;2023-03-03T16:38:01;98081.88;;;0.16;100.00
32492;BME280;20605;49.742;18.802;2023-03-03T16:40:58;98080.73;;;0.07;100.00
32492;BME280;20605;49.742;18.802;2023-03-03T16:46:27;98077.83;;;0.07;100.00
32492;BME280;20605;49.742;18.802;2023-03-03T16:54:09;98085.97;;;0.03;100.00
32492;BME280;20605;49.742;18.802;2023-03-03T16:56:43;98089.21;;;0.03;100.00
32492;BME280;20605;49.742;18.802;2023-03-03T17:10:31;98097.29;;;-0.29;100.00
32492;BME280;20605;49.742;18.802;2023-03-03T17:33:18;98103.54;;;-0.01;100.00
32492;BME280;20605;49.742;18.802;2023-03-03T17:35:56;98101.86;;;0.04;100.00
32492;BME280;20605;49.742;18.802;2023-03-03T17:44:19;98093.30;;;0.15;100.00
32492;BME280;20605;49.742;18.802;2023-03-03T17:46:53;98093.00;;;0.17;100.00
32492;BME280;20605;49.742;18.802;2023-03-03T18:11:11;98112.09;;;0.39;100.00
32492;BME280;20605;49.742;18.802;2023-03-03T18:19:15;98113.59;;;0.36;100.00
32492;BME280;20605;49.742;18.802;2023-03-03T18:21:50;98112.55;;;0.36;100.00
32492;BME280;20605;49.742;18.802;2023-03-03T18:26:51;98117.70;;;0.25;100.00